sensor_id;sensor_type;location;lat;lon;timestamp;P1;durP1;ratioP1;P2;durP2;ratioP2
45694;SDS011;31408;45.468;9.124;2022-12-18T00:00:57;37.85;;;17.63;;
45694;SDS011;31408;45.468;9.124;2022-12-18T00:03:23;38.80;;;16.88;;
45694;SDS011;31408;45.468;9.124;2022-12-18T00:05:49;38.70;;;18.90;;
45694;SDS011;31408;45.468;9.124;2022-12-18T00:08:16;40.92;;;19.08;;
45694;SDS011;31408;45.468;9.124;2022-12-18T00:10:42;39.92;;;17.00;;
45694;SDS011;31408;45.468;9.124;2022-12-18T00:13:08;37.50;;;17.30;;
45694;SDS011;31408;45.468;9.124;2022-12-18T00:15:34;43.88;;;18.67;;
45694;SDS011;31408;45.468;9.124;2022-12-18T00:18:00;35.08;;;18.05;;
45694;SDS011;31408;45.468;9.124;2022-12-18T00:20:25;41.60;;;18.25;;
45694;SDS011;31408;45.468;9.124;2022-12-18T00:22:51;42.28;;;18.58;;
45694;SDS011;31408;45.468;9.124;2022-12-18T00:25:17;33.28;;;15.32;;
45694;SDS011;31408;45.468;9.124;2022-12-18T00:27:43;38.05;;;18.70;;
45694;SDS011;31408;45.468;9.124;2022-12-18T00:30:09;35.95;;;17.30;;
45694;SDS011;31408;45.468;9.124;2022-12-18T00:32:35;37.05;;;17.98;;
45694;SDS011;31408;45.468;9.124;2022-12-18T00:35:01;39.47;;;17.33;;
45694;SDS011;31408;45.468;9.124;2022-12-18T00:37:26;39.65;;;18.02;;
45694;SDS011;31408;45.468;9.124;2022-12-18T00:39:52;39.30;;;18.58;;
45694;SDS011;31408;45.468;9.124;2022-12-18T00:42:18;40.80;;;19.13;;
45694;SDS011;31408;45.468;9.124;2022-12-18T00:45:03;39.25;;;16.83;;
45694;SDS011;31408;45.468;9.124;2022-12-18T00:47:30;35.10;;;16.98;;
45694;SDS011;31408;45.468;9.124;2022-12-18T00:49:56;40.05;;;18.33;;
45694;SDS011;31408;45.468;9.124;2022-12-18T00:52:21;42.05;;;20.00;;
45694;SDS011;31408;45.468;9.124;2022-12-18T00:54:46;41.38;;;16.48;;
45694;SDS011;31408;45.468;9.124;2022-12-18T00:57:12;51.53;;;17.95;;
45694;SDS011;31408;45.468;9.124;2022-12-18T00:59:37;43.30;;;18.77;;
45694;SDS011;31408;45.468;9.124;2022-12-18T01:02:03;52.05;;;19.30;;
45694;SDS011;31408;45.468;9.124;2022-12-18T01:04:30;42.40;;;18.95;;
45694;SDS011;31408;45.468;9.124;2022-12-18T01:06:56;41.75;;;18.10;;
45694;SDS011;31408;45.468;9.124;2022-12-18T01:09:22;41.13;;;17.05;;
45694;SDS011;31408;45.468;9.124;2022-12-18T01:11:47;46.00;;;19.73;;
45694;SDS011;31408;45.468;9.124;2022-12-18T01:14:13;52.00;;;18.60;;
45694;SDS011;31408;45.468;9.124;2022-12-18T01:16:38;49.00;;;18.55;;
45694;SDS011;31408;45.468;9.124;2022-12-18T01:19:04;53.53;;;21.23;;
45694;SDS011;31408;45.468;9.124;2022-12-18T01:21:29;47.25;;;18.73;;
45694;SDS011;31408;45.468;9.124;2022-12-18T01:23:55;46.28;;;18.90;;
45694;SDS011;31408;45.468;9.124;2022-12-18T01:26:27;46.08;;;20.08;;
45694;SDS011;31408;45.468;9.124;2022-12-18T01:28:57;53.90;;;19.60;;
45694;SDS011;31408;45.468;9.124;2022-12-18T01:31:24;58.40;;;22.48;;
45694;SDS011;31408;45.468;9.124;2022-12-18T01:33:51;58.10;;;22.55;;
45694;SDS011;31408;45.468;9.124;2022-12-18T01:36:28;60.38;;;22.10;;
45694;SDS011;31408;45.468;9.124;2022-12-18T01:38:54;50.55;;;22.98;;
45694;SDS011;31408;45.468;9.124;2022-12-18T01:41:22;47.05;;;21.23;;
45694;SDS011;31408;45.468;9.124;2022-12-18T01:43:53;51.40;;;20.63;;
45694;SDS011;31408;45.468;9.124;2022-12-18T01:46:21;48.70;;;22.45;;
45694;SDS011;31408;45.468;9.124;2022-12-18T01:48:48;63.22;;;24.00;;
45694;SDS011;31408;45.468;9.124;2022-12-18T01:51:15;61.08;;;24.85;;
45694;SDS011;31408;45.468;9.124;2022-12-18T01:53:41;65.60;;;27.30;;
45694;SDS011;31408;45.468;9.124;2022-12-18T01:56:07;63.28;;;25.88;;
45694;SDS011;31408;45.468;9.124;2022-12-18T02:01:11;73.53;;;26.27;;
45694;SDS011;31408;45.468;9.124;2022-12-18T02:03:37;65.13;;;26.05;;
45694;SDS011;31408;45.468;9.124;2022-12-18T02:06:07;67.72;;;27.48;;
45694;SDS011;31408;45.468;9.124;2022-12-18T02:14:43;67.03;;;24.02;;
45694;SDS011;31408;45.468;9.124;2022-12-18T02:17:07;68.63;;;24.65;;
45694;SDS011;31408;45.468;9.124;2022-12-18T02:27:39;54.45;;;21.77;;
45694;SDS011;31408;45.468;9.124;2022-12-18T02:30:06;56.42;;;23.42;;
45694;SDS011;31408;45.468;9.124;2022-12-18T02:32:34;73.88;;;26.05;;
45694;SDS011;31408;45.468;9.124;2022-12-18T02:35:03;55.33;;;21.67;;
45694;SDS011;31408;45.468;9.124;2022-12-18T02:37:31;52.88;;;22.02;;
45694;SDS011;31408;45.468;9.124;2022-12-18T02:40:00;56.95;;;22.10;;
45694;SDS011;31408;45.468;9.124;2022-12-18T02:42:29;51.90;;;22.27;;
45694;SDS011;31408;45.468;9.124;2022-12-18T02:44:55;52.83;;;21.88;;
45694;SDS011;31408;45.468;9.124;2022-12-18T02:47:24;52.35;;;22.98;;
45694;SDS011;31408;45.468;9.124;2022-12-18T02:52:54;53.38;;;21.95;;
45694;SDS011;31408;45.468;9.124;2022-12-18T02:55:38;44.47;;;19.13;;
45694;SDS011;31408;45.468;9.124;2022-12-18T02:58:19;54.83;;;22.85;;
45694;SDS011;31408;45.468;9.124;2022-12-18T03:03:40;56.63;;;22.83;;
45694;SDS011;31408;45.468;9.124;2022-12-18T03:06:17;52.10;;;21.85;;
45694;SDS011;31408;45.468;9.124;2022-12-18T03:08:49;50.45;;;20.35;;
45694;SDS011;31408;45.468;9.124;2022-12-18T03:11:18;47.75;;;21.70;;
45694;SDS011;31408;45.468;9.124;2022-12-18T03:14:06;47.13;;;19.92;;
45694;SDS011;31408;45.468;9.124;2022-12-18T03:16:43;54.88;;;22.42;;
45694;SDS011;31408;45.468;9.124;2022-12-18T03:19:11;58.88;;;21.75;;
45694;SDS011;31408;45.468;9.124;2022-12-18T03:21:42;52.97;;;20.27;;
45694;SDS011;31408;45.468;9.124;2022-12-18T03:24:14;52.15;;;21.65;;
45694;SDS011;31408;45.468;9.124;2022-12-18T03:26:41;57.70;;;21.60;;
45694;SDS011;31408;45.468;9.124;2022-12-18T03:29:12;63.92;;;24.42;;
45694;SDS011;31408;45.468;9.124;2022-12-18T03:34:15;46.22;;;19.85;;
45694;SDS011;31408;45.468;9.124;2022-12-18T03:36:45;42.80;;;19.27;;
45694;SDS011;31408;45.468;9.124;2022-12-18T03:39:13;59.00;;;22.35;;
45694;SDS011;31408;45.468;9.124;2022-12-18T03:41:43;48.50;;;21.90;;
45694;SDS011;31408;45.468;9.124;2022-12-18T03:45:23;46.67;;;20.40;;
45694;SDS011;31408;45.468;9.124;2022-12-18T03:50:16;45.30;;;20.23;;
45694;SDS011;31408;45.468;9.124;2022-12-18T03:52:52;50.90;;;23.50;;
45694;SDS011;31408;45.468;9.124;2022-12-18T03:55:22;45.60;;;21.25;;
45694;SDS011;31408;45.468;9.124;2022-12-18T03:57:54;49.72;;;20.60;;
45694;SDS011;31408;45.468;9.124;2022-12-18T04:00:20;57.20;;;21.50;;
45694;SDS011;31408;45.468;9.124;2022-12-18T04:02:55;58.78;;;22.23;;
45694;SDS011;31408;45.468;9.124;2022-12-18T04:05:29;58.90;;;22.73;;
45694;SDS011;31408;45.468;9.124;2022-12-18T04:07:56;63.20;;;24.42;;
45694;SDS011;31408;45.468;9.124;2022-12-18T04:10:22;50.97;;;22.00;;
45694;SDS011;31408;45.468;9.124;2022-12-18T04:12:48;62.15;;;25.73;;
45694;SDS011;31408;45.468;9.124;2022-12-18T04:15:14;47.00;;;21.00;;
45694;SDS011;31408;45.468;9.124;2022-12-18T04:17:43;50.83;;;19.60;;
45694;SDS011;31408;45.468;9.124;2022-12-18T04:20:13;51.67;;;20.35;;
45694;SDS011;31408;45.468;9.124;2022-12-18T04:22:42;52.25;;;23.13;;
45694;SDS011;31408;45.468;9.124;2022-12-18T04:25:08;43.53;;;20.67;;
45694;SDS011;31408;45.468;9.124;2022-12-18T04:27:37;42.60;;;18.63;;
45694;SDS011;31408;45.468;9.124;2022-12-18T04:30:04;38.05;;;17.33;;
45694;SDS011;31408;45.468;9.124;2022-12-18T04:32:32;42.25;;;19.52;;
45694;SDS011;31408;45.468;9.124;2022-12-18T04:34:59;44.45;;;20.60;;
45694;SDS011;31408;45.468;9.124;2022-12-18T04:37:24;46.22;;;19.75;;
45694;SDS011;31408;45.468;9.124;2022-12-18T04:39:50;49.50;;;20.85;;
45694;SDS011;31408;45.468;9.124;2022-12-18T04:42:23;48.60;;;20.80;;
45694;SDS011;31408;45.468;9.124;2022-12-18T04:44:48;46.55;;;20.10;;
45694;SDS011;31408;45.468;9.124;2022-12-18T04:47:14;45.47;;;19.40;;
45694;SDS011;31408;45.468;9.124;2022-12-18T04:49:39;48.53;;;22.08;;
45694;SDS011;31408;45.468;9.124;2022-12-18T04:52:05;41.47;;;17.73;;
45694;SDS011;31408;45.468;9.124;2022-12-18T04:54:30;43.53;;;20.35;;
45694;SDS011;31408;45.468;9.124;2022-12-18T04:56:56;45.30;;;21.05;;
45694;SDS011;31408;45.468;9.124;2022-12-18T04:59:21;46.50;;;19.70;;
45694;SDS011;31408;45.468;9.124;2022-12-18T05:01:46;44.38;;;19.02;;
45694;SDS011;31408;45.468;9.124;2022-12-18T05:04:12;42.92;;;18.80;;
45694;SDS011;31408;45.468;9.124;2022-12-18T05:06:37;48.28;;;19.33;;
45694;SDS011;31408;45.468;9.124;2022-12-18T05:09:03;48.53;;;19.15;;
45694;SDS011;31408;45.468;9.124;2022-12-18T05:11:28;38.17;;;19.15;;
45694;SDS011;31408;45.468;9.124;2022-12-18T05:13:54;45.75;;;19.98;;
45694;SDS011;31408;45.468;9.124;2022-12-18T05:16:19;51.95;;;21.40;;
45694;SDS011;31408;45.468;9.124;2022-12-18T05:18:44;47.30;;;19.75;;
45694;SDS011;31408;45.468;9.124;2022-12-18T05:21:10;45.05;;;19.48;;
45694;SDS011;31408;45.468;9.124;2022-12-18T05:23:36;46.65;;;18.73;;
45694;SDS011;31408;45.468;9.124;2022-12-18T05:26:03;46.55;;;19.27;;
45694;SDS011;31408;45.468;9.124;2022-12-18T05:28:30;46.58;;;20.20;;
45694;SDS011;31408;45.468;9.124;2022-12-18T05:30:58;43.40;;;19.23;;
45694;SDS011;31408;45.468;9.124;2022-12-18T05:33:24;43.25;;;17.40;;
45694;SDS011;31408;45.468;9.124;2022-12-18T05:35:55;49.75;;;20.95;;
45694;SDS011;31408;45.468;9.124;2022-12-18T05:40:50;39.55;;;16.42;;
45694;SDS011;31408;45.468;9.124;2022-12-18T05:43:17;49.10;;;19.40;;
45694;SDS011;31408;45.468;9.124;2022-12-18T05:45:43;49.55;;;19.35;;
45694;SDS011;31408;45.468;9.124;2022-12-18T05:48:09;50.88;;;21.77;;
45694;SDS011;31408;45.468;9.124;2022-12-18T05:50:35;49.72;;;18.13;;
45694;SDS011;31408;45.468;9.124;2022-12-18T05:53:02;58.95;;;23.20;;
45694;SDS011;31408;45.468;9.124;2022-12-18T05:55:28;57.95;;;22.00;;
45694;SDS011;31408;45.468;9.124;2022-12-18T05:57:54;46.83;;;20.38;;
45694;SDS011;31408;45.468;9.124;2022-12-18T06:00:19;59.33;;;20.92;;
45694;SDS011;31408;45.468;9.124;2022-12-18T06:02:48;62.17;;;24.33;;
45694;SDS011;31408;45.468;9.124;2022-12-18T06:05:13;53.40;;;22.08;;
45694;SDS011;31408;45.468;9.124;2022-12-18T06:07:39;53.25;;;22.33;;
45694;SDS011;31408;45.468;9.124;2022-12-18T06:10:05;65.90;;;23.50;;
45694;SDS011;31408;45.468;9.124;2022-12-18T06:12:31;51.20;;;21.33;;
45694;SDS011;31408;45.468;9.124;2022-12-18T06:14:58;59.95;;;22.65;;
45694;SDS011;31408;45.468;9.124;2022-12-18T06:17:28;67.28;;;24.17;;
45694;SDS011;31408;45.468;9.124;2022-12-18T06:19:54;50.50;;;20.13;;
45694;SDS011;31408;45.468;9.124;2022-12-18T06:22:20;69.00;;;22.55;;
45694;SDS011;31408;45.468;9.124;2022-12-18T06:24:45;62.13;;;23.73;;
45694;SDS011;31408;45.468;9.124;2022-12-18T06:27:11;55.85;;;22.63;;
45694;SDS011;31408;45.468;9.124;2022-12-18T06:29:36;64.13;;;26.00;;
45694;SDS011;31408;45.468;9.124;2022-12-18T06:32:02;65.47;;;23.55;;
45694;SDS011;31408;45.468;9.124;2022-12-18T06:34:27;66.50;;;23.25;;
45694;SDS011;31408;45.468;9.124;2022-12-18T06:36:53;62.42;;;22.38;;
45694;SDS011;31408;45.468;9.124;2022-12-18T06:39:18;57.42;;;24.48;;
45694;SDS011;31408;45.468;9.124;2022-12-18T06:41:44;69.78;;;25.65;;
45694;SDS011;31408;45.468;9.124;2022-12-18T06:44:09;61.95;;;25.13;;
45694;SDS011;31408;45.468;9.124;2022-12-18T06:46:35;61.67;;;24.30;;
45694;SDS011;31408;45.468;9.124;2022-12-18T06:49:00;58.42;;;21.35;;
45694;SDS011;31408;45.468;9.124;2022-12-18T06:51:26;62.03;;;20.90;;
45694;SDS011;31408;45.468;9.124;2022-12-18T06:53:51;55.67;;;24.10;;
45694;SDS011;31408;45.468;9.124;2022-12-18T06:56:17;68.57;;;23.50;;
45694;SDS011;31408;45.468;9.124;2022-12-18T06:58:42;60.53;;;23.80;;
45694;SDS011;31408;45.468;9.124;2022-12-18T07:01:09;60.22;;;23.00;;
45694;SDS011;31408;45.468;9.124;2022-12-18T07:03:35;56.40;;;20.40;;
45694;SDS011;31408;45.468;9.124;2022-12-18T07:06:02;70.25;;;25.52;;
45694;SDS011;31408;45.468;9.124;2022-12-18T07:08:28;60.58;;;21.60;;
45694;SDS011;31408;45.468;9.124;2022-12-18T07:10:55;62.83;;;22.73;;
45694;SDS011;31408;45.468;9.124;2022-12-18T07:13:20;52.83;;;23.17;;
45694;SDS011;31408;45.468;9.124;2022-12-18T07:15:46;54.92;;;21.45;;
45694;SDS011;31408;45.468;9.124;2022-12-18T07:18:11;60.72;;;22.27;;
45694;SDS011;31408;45.468;9.124;2022-12-18T07:20:36;67.05;;;22.15;;
45694;SDS011;31408;45.468;9.124;2022-12-18T07:23:03;59.08;;;21.58;;
45694;SDS011;31408;45.468;9.124;2022-12-18T07:25:30;54.78;;;22.55;;
45694;SDS011;31408;45.468;9.124;2022-12-18T07:27:58;63.25;;;22.70;;
45694;SDS011;31408;45.468;9.124;2022-12-18T07:30:24;62.95;;;24.45;;
45694;SDS011;31408;45.468;9.124;2022-12-18T07:32:49;61.38;;;23.23;;
45694;SDS011;31408;45.468;9.124;2022-12-18T07:35:15;63.33;;;22.83;;
45694;SDS011;31408;45.468;9.124;2022-12-18T07:37:40;64.15;;;22.85;;
45694;SDS011;31408;45.468;9.124;2022-12-18T07:40:06;55.10;;;22.05;;
45694;SDS011;31408;45.468;9.124;2022-12-18T07:42:32;57.42;;;21.67;;
45694;SDS011;31408;45.468;9.124;2022-12-18T07:44:58;60.72;;;25.50;;
45694;SDS011;31408;45.468;9.124;2022-12-18T07:47:24;56.90;;;20.50;;
45694;SDS011;31408;45.468;9.124;2022-12-18T07:49:50;67.03;;;25.73;;
45694;SDS011;31408;45.468;9.124;2022-12-18T07:52:15;65.68;;;24.13;;
45694;SDS011;31408;45.468;9.124;2022-12-18T07:54:41;65.68;;;23.27;;
45694;SDS011;31408;45.468;9.124;2022-12-18T07:57:06;85.57;;;27.30;;
45694;SDS011;31408;45.468;9.124;2022-12-18T07:59:32;63.75;;;22.52;;
45694;SDS011;31408;45.468;9.124;2022-12-18T08:01:58;59.83;;;22.73;;
45694;SDS011;31408;45.468;9.124;2022-12-18T08:04:23;62.95;;;22.65;;
45694;SDS011;31408;45.468;9.124;2022-12-18T08:06:49;69.63;;;23.80;;
45694;SDS011;31408;45.468;9.124;2022-12-18T08:09:15;60.38;;;21.77;;
45694;SDS011;31408;45.468;9.124;2022-12-18T08:11:40;65.80;;;23.45;;
45694;SDS011;31408;45.468;9.124;2022-12-18T08:14:06;62.88;;;20.52;;
45694;SDS011;31408;45.468;9.124;2022-12-18T08:16:31;66.03;;;23.05;;
45694;SDS011;31408;45.468;9.124;2022-12-18T08:18:57;64.68;;;22.27;;
45694;SDS011;31408;45.468;9.124;2022-12-18T08:21:23;58.58;;;23.17;;
45694;SDS011;31408;45.468;9.124;2022-12-18T08:23:50;59.03;;;22.20;;
45694;SDS011;31408;45.468;9.124;2022-12-18T08:26:22;60.28;;;23.13;;
45694;SDS011;31408;45.468;9.124;2022-12-18T08:28:48;55.42;;;22.88;;
45694;SDS011;31408;45.468;9.124;2022-12-18T08:31:14;56.38;;;24.30;;
45694;SDS011;31408;45.468;9.124;2022-12-18T08:33:40;67.03;;;23.42;;
45694;SDS011;31408;45.468;9.124;2022-12-18T08:36:05;62.30;;;23.48;;
45694;SDS011;31408;45.468;9.124;2022-12-18T08:38:32;67.60;;;24.52;;
45694;SDS011;31408;45.468;9.124;2022-12-18T08:41:08;51.35;;;22.92;;
45694;SDS011;31408;45.468;9.124;2022-12-18T08:43:34;53.78;;;23.42;;
45694;SDS011;31408;45.468;9.124;2022-12-18T08:46:19;64.03;;;24.83;;
45694;SDS011;31408;45.468;9.124;2022-12-18T08:48:45;56.28;;;25.10;;
45694;SDS011;31408;45.468;9.124;2022-12-18T08:51:11;59.53;;;22.52;;
45694;SDS011;31408;45.468;9.124;2022-12-18T08:53:36;63.45;;;24.75;;
45694;SDS011;31408;45.468;9.124;2022-12-18T08:56:02;63.70;;;24.25;;
45694;SDS011;31408;45.468;9.124;2022-12-18T08:58:29;56.55;;;22.38;;
45694;SDS011;31408;45.468;9.124;2022-12-18T09:00:59;63.95;;;24.08;;
45694;SDS011;31408;45.468;9.124;2022-12-18T09:03:26;64.25;;;22.98;;
45694;SDS011;31408;45.468;9.124;2022-12-18T09:05:51;69.30;;;28.30;;
45694;SDS011;31408;45.468;9.124;2022-12-18T09:08:17;63.83;;;24.00;;
45694;SDS011;31408;45.468;9.124;2022-12-18T09:10:47;60.00;;;25.90;;
45694;SDS011;31408;45.468;9.124;2022-12-18T09:15:43;69.60;;;23.90;;
45694;SDS011;31408;45.468;9.124;2022-12-18T09:18:10;70.95;;;27.25;;
45694;SDS011;31408;45.468;9.124;2022-12-18T09:20:37;76.10;;;27.45;;
45694;SDS011;31408;45.468;9.124;2022-12-18T09:23:03;68.68;;;26.42;;
45694;SDS011;31408;45.468;9.124;2022-12-18T09:25:29;78.25;;;26.08;;
45694;SDS011;31408;45.468;9.124;2022-12-18T09:27:59;66.10;;;25.27;;
45694;SDS011;31408;45.468;9.124;2022-12-18T09:30:25;61.70;;;25.52;;
45694;SDS011;31408;45.468;9.124;2022-12-18T09:32:54;60.53;;;25.02;;
45694;SDS011;31408;45.468;9.124;2022-12-18T09:35:20;63.65;;;24.63;;
45694;SDS011;31408;45.468;9.124;2022-12-18T09:37:45;63.55;;;24.92;;
45694;SDS011;31408;45.468;9.124;2022-12-18T09:40:15;52.67;;;25.42;;
45694;SDS011;31408;45.468;9.124;2022-12-18T09:42:42;59.00;;;23.73;;
45694;SDS011;31408;45.468;9.124;2022-12-18T09:45:18;69.30;;;25.35;;
45694;SDS011;31408;45.468;9.124;2022-12-18T09:47:44;67.30;;;24.90;;
45694;SDS011;31408;45.468;9.124;2022-12-18T09:52:59;62.90;;;23.15;;
45694;SDS011;31408;45.468;9.124;2022-12-18T09:57:59;53.13;;;22.13;;
45694;SDS011;31408;45.468;9.124;2022-12-18T10:00:27;47.53;;;21.30;;
45694;SDS011;31408;45.468;9.124;2022-12-18T10:03:00;57.95;;;23.10;;
45694;SDS011;31408;45.468;9.124;2022-12-18T10:05:33;45.95;;;21.05;;
45694;SDS011;31408;45.468;9.124;2022-12-18T10:08:09;52.90;;;22.92;;
45694;SDS011;31408;45.468;9.124;2022-12-18T10:13:23;44.08;;;21.05;;
45694;SDS011;31408;45.468;9.124;2022-12-18T10:27:16;53.00;;;23.88;;
45694;SDS011;31408;45.468;9.124;2022-12-18T10:29:44;42.65;;;22.35;;
45694;SDS011;31408;45.468;9.124;2022-12-18T10:32:14;48.53;;;22.70;;
45694;SDS011;31408;45.468;9.124;2022-12-18T10:34:45;53.42;;;22.55;;
45694;SDS011;31408;45.468;9.124;2022-12-18T10:37:18;49.53;;;22.08;;
45694;SDS011;31408;45.468;9.124;2022-12-18T10:39:45;58.60;;;24.17;;
45694;SDS011;31408;45.468;9.124;2022-12-18T10:42:31;53.50;;;24.63;;
45694;SDS011;31408;45.468;9.124;2022-12-18T10:45:16;52.60;;;25.20;;
45694;SDS011;31408;45.468;9.124;2022-12-18T10:47:45;50.25;;;23.35;;
45694;SDS011;31408;45.468;9.124;2022-12-18T10:50:26;51.15;;;24.02;;
45694;SDS011;31408;45.468;9.124;2022-12-18T10:52:55;51.60;;;24.83;;
45694;SDS011;31408;45.468;9.124;2022-12-18T10:55:22;59.47;;;24.05;;
45694;SDS011;31408;45.468;9.124;2022-12-18T10:57:55;45.90;;;23.00;;
45694;SDS011;31408;45.468;9.124;2022-12-18T11:00:44;44.28;;;20.67;;
45694;SDS011;31408;45.468;9.124;2022-12-18T11:03:29;43.33;;;20.88;;
45694;SDS011;31408;45.468;9.124;2022-12-18T11:06:30;43.28;;;21.58;;
45694;SDS011;31408;45.468;9.124;2022-12-18T11:09:00;46.42;;;20.70;;
45694;SDS011;31408;45.468;9.124;2022-12-18T11:11:28;42.63;;;20.45;;
45694;SDS011;31408;45.468;9.124;2022-12-18T11:14:04;51.35;;;22.27;;
45694;SDS011;31408;45.468;9.124;2022-12-18T11:16:35;41.50;;;20.25;;
45694;SDS011;31408;45.468;9.124;2022-12-18T11:21:49;42.20;;;23.23;;
45694;SDS011;31408;45.468;9.124;2022-12-18T11:24:34;46.53;;;22.30;;
45694;SDS011;31408;45.468;9.124;2022-12-18T11:27:02;51.70;;;23.65;;
45694;SDS011;31408;45.468;9.124;2022-12-18T11:29:33;51.58;;;22.85;;
45694;SDS011;31408;45.468;9.124;2022-12-18T11:32:20;49.60;;;23.85;;
45694;SDS011;31408;45.468;9.124;2022-12-18T11:34:49;59.65;;;23.77;;
45694;SDS011;31408;45.468;9.124;2022-12-18T11:37:16;41.55;;;22.55;;
45694;SDS011;31408;45.468;9.124;2022-12-18T11:40:05;44.55;;;22.45;;
45694;SDS011;31408;45.468;9.124;2022-12-18T11:42:37;41.22;;;19.08;;
45694;SDS011;31408;45.468;9.124;2022-12-18T11:47:42;50.33;;;26.10;;
45694;SDS011;31408;45.468;9.124;2022-12-18T11:50:12;62.83;;;27.75;;
45694;SDS011;31408;45.468;9.124;2022-12-18T11:52:40;63.97;;;29.90;;
45694;SDS011;31408;45.468;9.124;2022-12-18T11:55:16;66.30;;;28.88;;
45694;SDS011;31408;45.468;9.124;2022-12-18T12:00:22;62.10;;;29.88;;
45694;SDS011;31408;45.468;9.124;2022-12-18T12:05:44;60.33;;;28.02;;
45694;SDS011;31408;45.468;9.124;2022-12-18T12:08:24;60.58;;;30.75;;
45694;SDS011;31408;45.468;9.124;2022-12-18T12:13:33;59.85;;;28.50;;
45694;SDS011;31408;45.468;9.124;2022-12-18T12:26:38;62.33;;;27.83;;
45694;SDS011;31408;45.468;9.124;2022-12-18T12:34:31;57.88;;;27.85;;
45694;SDS011;31408;45.468;9.124;2022-12-18T12:39:42;45.90;;;23.45;;
45694;SDS011;31408;45.468;9.124;2022-12-18T12:42:31;54.22;;;25.83;;
45694;SDS011;31408;45.468;9.124;2022-12-18T12:45:21;46.40;;;24.60;;
45694;SDS011;31408;45.468;9.124;2022-12-18T12:47:49;50.55;;;25.65;;
45694;SDS011;31408;45.468;9.124;2022-12-18T12:50:17;48.55;;;24.45;;
45694;SDS011;31408;45.468;9.124;2022-12-18T12:52:45;68.28;;;27.88;;
45694;SDS011;31408;45.468;9.124;2022-12-18T12:55:29;53.40;;;25.75;;
45694;SDS011;31408;45.468;9.124;2022-12-18T12:58:06;47.30;;;22.85;;
45694;SDS011;31408;45.468;9.124;2022-12-18T13:00:46;55.30;;;25.42;;
45694;SDS011;31408;45.468;9.124;2022-12-18T13:09:31;50.47;;;20.90;;
45694;SDS011;31408;45.468;9.124;2022-12-18T13:12:04;42.40;;;21.40;;
45694;SDS011;31408;45.468;9.124;2022-12-18T13:14:55;38.35;;;20.42;;
45694;SDS011;31408;45.468;9.124;2022-12-18T13:17:37;41.63;;;19.45;;
45694;SDS011;31408;45.468;9.124;2022-12-18T13:22:31;43.47;;;20.42;;
45694;SDS011;31408;45.468;9.124;2022-12-18T13:25:02;40.53;;;22.02;;
45694;SDS011;31408;45.468;9.124;2022-12-18T13:40:57;39.60;;;19.92;;
45694;SDS011;31408;45.468;9.124;2022-12-18T13:43:39;37.78;;;19.83;;
45694;SDS011;31408;45.468;9.124;2022-12-18T13:46:21;37.15;;;17.60;;
45694;SDS011;31408;45.468;9.124;2022-12-18T13:48:52;37.97;;;19.55;;
45694;SDS011;31408;45.468;9.124;2022-12-18T13:51:22;36.20;;;18.65;;
45694;SDS011;31408;45.468;9.124;2022-12-18T13:53:53;39.65;;;18.95;;
45694;SDS011;31408;45.468;9.124;2022-12-18T13:56:42;45.53;;;20.05;;
45694;SDS011;31408;45.468;9.124;2022-12-18T14:01:48;39.95;;;19.70;;
45694;SDS011;31408;45.468;9.124;2022-12-18T14:07:04;39.78;;;20.38;;
45694;SDS011;31408;45.468;9.124;2022-12-18T14:09:34;37.30;;;19.20;;
45694;SDS011;31408;45.468;9.124;2022-12-18T14:12:02;37.20;;;19.10;;
45694;SDS011;31408;45.468;9.124;2022-12-18T14:14:47;39.50;;;17.70;;
45694;SDS011;31408;45.468;9.124;2022-12-18T14:17:14;36.63;;;18.88;;
45694;SDS011;31408;45.468;9.124;2022-12-18T14:19:41;37.25;;;20.08;;
45694;SDS011;31408;45.468;9.124;2022-12-18T14:22:17;42.83;;;19.65;;
45694;SDS011;31408;45.468;9.124;2022-12-18T14:24:45;36.15;;;19.13;;
45694;SDS011;31408;45.468;9.124;2022-12-18T14:27:21;37.00;;;18.05;;
45694;SDS011;31408;45.468;9.124;2022-12-18T14:29:50;40.03;;;18.83;;
45694;SDS011;31408;45.468;9.124;2022-12-18T14:32:17;36.53;;;19.00;;
45694;SDS011;31408;45.468;9.124;2022-12-18T14:34:48;39.47;;;19.17;;
45694;SDS011;31408;45.468;9.124;2022-12-18T14:37:20;36.53;;;17.67;;
45694;SDS011;31408;45.468;9.124;2022-12-18T14:40:01;33.25;;;17.40;;
45694;SDS011;31408;45.468;9.124;2022-12-18T14:42:29;40.70;;;19.92;;
45694;SDS011;31408;45.468;9.124;2022-12-18T14:48:01;38.33;;;18.33;;
45694;SDS011;31408;45.468;9.124;2022-12-18T14:50:31;30.58;;;16.92;;
45694;SDS011;31408;45.468;9.124;2022-12-18T14:53:00;40.72;;;18.45;;
45694;SDS011;31408;45.468;9.124;2022-12-18T14:55:25;37.05;;;18.52;;
45694;SDS011;31408;45.468;9.124;2022-12-18T14:57:52;38.47;;;19.25;;
45694;SDS011;31408;45.468;9.124;2022-12-18T15:00:20;35.60;;;19.13;;
45694;SDS011;31408;45.468;9.124;2022-12-18T15:02:48;38.58;;;19.58;;
45694;SDS011;31408;45.468;9.124;2022-12-18T15:05:17;39.90;;;20.30;;
45694;SDS011;31408;45.468;9.124;2022-12-18T15:07:47;41.05;;;21.88;;
45694;SDS011;31408;45.468;9.124;2022-12-18T15:12:49;39.17;;;19.05;;
45694;SDS011;31408;45.468;9.124;2022-12-18T15:20:42;36.88;;;20.08;;
45694;SDS011;31408;45.468;9.124;2022-12-18T15:23:38;36.97;;;19.35;;
45694;SDS011;31408;45.468;9.124;2022-12-18T15:26:14;37.70;;;19.05;;
45694;SDS011;31408;45.468;9.124;2022-12-18T15:28:44;37.80;;;19.13;;
45694;SDS011;31408;45.468;9.124;2022-12-18T15:33:43;36.55;;;17.73;;
45694;SDS011;31408;45.468;9.124;2022-12-18T15:36:15;41.22;;;20.15;;
45694;SDS011;31408;45.468;9.124;2022-12-18T15:38:43;40.92;;;20.90;;
45694;SDS011;31408;45.468;9.124;2022-12-18T15:41:15;39.05;;;19.55;;
45694;SDS011;31408;45.468;9.124;2022-12-18T15:43:42;39.35;;;19.75;;
45694;SDS011;31408;45.468;9.124;2022-12-18T15:46:12;42.92;;;20.30;;
45694;SDS011;31408;45.468;9.124;2022-12-18T15:48:40;39.88;;;18.25;;
45694;SDS011;31408;45.468;9.124;2022-12-18T15:51:11;40.72;;;21.58;;
45694;SDS011;31408;45.468;9.124;2022-12-18T15:53:40;45.58;;;21.42;;
45694;SDS011;31408;45.468;9.124;2022-12-18T15:56:09;44.42;;;22.27;;
45694;SDS011;31408;45.468;9.124;2022-12-18T15:58:54;43.67;;;21.38;;
45694;SDS011;31408;45.468;9.124;2022-12-18T16:01:20;43.22;;;24.13;;
45694;SDS011;31408;45.468;9.124;2022-12-18T16:03:45;40.13;;;21.98;;
45694;SDS011;31408;45.468;9.124;2022-12-18T16:06:11;40.03;;;21.48;;
45694;SDS011;31408;45.468;9.124;2022-12-18T16:08:36;43.13;;;21.17;;
45694;SDS011;31408;45.468;9.124;2022-12-18T16:11:02;43.55;;;22.58;;
45694;SDS011;31408;45.468;9.124;2022-12-18T16:13:27;39.28;;;21.48;;
45694;SDS011;31408;45.468;9.124;2022-12-18T16:15:53;39.90;;;20.30;;
45694;SDS011;31408;45.468;9.124;2022-12-18T16:18:18;43.15;;;21.88;;
45694;SDS011;31408;45.468;9.124;2022-12-18T16:20:44;43.03;;;21.73;;
45694;SDS011;31408;45.468;9.124;2022-12-18T16:23:10;44.70;;;23.17;;
45694;SDS011;31408;45.468;9.124;2022-12-18T16:25:35;50.38;;;22.30;;
45694;SDS011;31408;45.468;9.124;2022-12-18T16:28:01;43.63;;;22.88;;
45694;SDS011;31408;45.468;9.124;2022-12-18T16:30:27;44.65;;;22.17;;
45694;SDS011;31408;45.468;9.124;2022-12-18T16:32:55;41.63;;;21.33;;
45694;SDS011;31408;45.468;9.124;2022-12-18T16:35:22;42.60;;;22.00;;
45694;SDS011;31408;45.468;9.124;2022-12-18T16:37:47;45.67;;;22.92;;